Time;durP1;ratioP1;P1;durP2;ratioP2;P2;SDS_P1;SDS_P2;PMS_P1;PMS_P2;Temp;Humidity;BMP_temperature;BMP_pressure;BME280_temperature;BME280_humidity;BME280_pressure;Samples;Min_cycle;Max_cycle;Signal;HPM_P1;HPM_P2
2022/11/11 00:01:47;;;;;;;;;;;;;;;;;;5049659;28;19909;-57
2022/11/11 00:04:13;;;;;;;;;;;;;;;;;;5050603;28;20003;-57
2022/11/11 00:06:39;;;;;;;;;;;;;;;;;;5050506;28;20396;-57
2022/11/11 00:09:05;;;;;;;;;;;;;;;;;;5050999;28;19908;-57
2022/11/11 00:11:31;;;;;;;;;;;;;;;;;;5051080;28;19915;-57
2022/11/11 00:13:57;;;;;;;;;;;;;;;;;;5051637;28;19912;-57
2022/11/11 00:16:23;;;;;;;;;;;;;;;;;;5051661;28;19909;-59
2022/11/11 00:27:04;;;;;;;;;;;;;;;;;;5052627;28;19916;-57
2022/11/11 00:29:30;;;;;;;;;;;;;;;;;;5055132;28;19909;-56
2022/11/11 00:35:51;;;;;;;;;;;;;;;;;;5055602;28;19943;-55
2022/11/11 00:37:26;;;;;;;;;;;;;;;;;;5054400;28;19909;-54
2022/11/11 00:39:52;;;;;;;;;;;;;;;;;;5055139;28;20403;-57
2022/11/11 00:42:18;;;;;;;;;;;;;;;;;;5055597;28;19920;-52
2022/11/11 00:44:44;;;;;;;;;;;;;;;;;;5055403;28;19916;-53
2022/11/11 00:52:39;;;;;;;;;;;;;;;;;;5055142;28;20386;-56
2022/11/11 00:55:05;;;;;;;;;;;;;;;;;;5036974;28;19955;-53
2022/11/11 00:57:31;;;;;;;;;;;;;;;;;;5055090;28;19920;-52
2022/11/11 00:59:57;;;;;;;;;;;;;;;;;;5054651;28;19916;-53
2022/11/11 01:02:22;;;;;;;;;;;;;;;;;;5054837;28;19909;-53
2022/11/11 01:04:48;;;;;;;;;;;;;;;;;;5054427;28;19917;-56
2022/11/11 01:07:14;;;;;;;;;;;;;;;;;;5054494;28;19916;-55
2022/11/11 01:09:40;;;;;;;;;;;;;;;;;;5054227;28;20288;-56
2022/11/11 01:12:06;;;;;;;;;;;;;;;;;;5054636;28;19916;-57
2022/11/11 01:14:32;;;;;;;;;;;;;;;;;;5054566;28;19912;-53
2022/11/11 01:16:58;;;;;;;;;;;;;;;;;;5054553;28;19919;-57
2022/11/11 01:19:24;;;;;;;;;;;;;;;;;;5054223;28;20372;-55
2022/11/11 01:21:50;;;;;;;;;;;;;;;;;;5054196;28;19909;-56
2022/11/11 01:24:16;;;;;;;;;;;;;;;;;;5054365;28;19913;-53
2022/11/11 01:26:41;;;;;;;;;;;;;;;;;;5054459;28;19915;-57
2022/11/11 01:29:07;;;;;;;;;;;;;;;;;;5054210;28;19916;-54
2022/11/11 01:31:33;;;;;;;;;;;;;;;;;;5054443;28;19905;-57
2022/11/11 01:33:59;;;;;;;;;;;;;;;;;;5054195;28;19908;-53
2022/11/11 01:36:25;;;;;;;;;;;;;;;;;;5058110;28;20304;-54
2022/11/11 01:38:51;;;;;;;;;;;;;;;;;;5052992;28;19916;-52
2022/11/11 01:41:32;;;;;;;;;;;;;;;;;;5054275;28;19912;-56
2022/11/11 01:43:58;;;;;;;;;;;;;;;;;;5054034;28;19917;-54
2022/11/11 01:46:24;;;;;;;;;;;;;;;;;;5053853;28;19999;-57
2022/11/11 01:51:35;;;;;;;;;;;;;;;;;;5037290;28;20051;-57
2022/11/11 01:54:01;;;;;;;;;;;;;;;;;;5054023;28;19947;-56
2022/11/11 01:56:27;;;;;;;;;;;;;;;;;;5053727;28;19956;-56
2022/11/11 01:58:52;;;;;;;;;;;;;;;;;;5037584;28;19916;-58
2022/11/11 02:01:18;;;;;;;;;;;;;;;;;;5053753;28;20383;-58
2022/11/11 02:05:40;;;;;;;;;;;;;;;;;;5053489;28;20266;-56
2022/11/11 02:06:30;;;;;;;;;;;;;;;;;;5053257;28;19905;-56
2022/11/11 02:08:56;;;;;;;;;;;16.40;90.00;;;;;;5053319;28;20369;-56
2022/11/11 02:14:49;;;;;;;;;;;;;;;;;;5053759;28;19963;-56
2022/11/11 02:16:55;;;;;;;;;;;;;;;;;;5044873;28;19928;-54
2022/11/11 02:19:21;;;;;;;;;;;;;;;;;;5053276;28;19905;-53
2022/11/11 02:21:47;;;;;;;;;;;;;;;;;;5053322;28;19908;-56
2022/11/11 02:24:13;;;;;;;;;;;;;;;;;;5053330;28;19908;-54
2022/11/11 02:26:39;;;;;;;;;;;;;;;;;;5053260;28;20288;-55
2022/11/11 02:29:05;;;;;;;;;;;;;;;;;;5052993;28;19909;-53
2022/11/11 02:31:31;;;;;;;;;;;;;;;;;;5053112;28;19904;-58
2022/11/11 02:33:57;;;;;;;;;;;;;;;;;;5053056;28;19916;-55
2022/11/11 02:36:23;;;;;;;;;;;;;;;;;;5052826;28;19905;-57
2022/11/11 02:38:49;;;;;;;;;;;;;;;;;;5052732;28;19955;-57
2022/11/11 02:43:59;;;;;;;;;;;;;;;;;;5052877;28;19920;-53
2022/11/11 02:46:25;;;;;;;;;;;;;;;;;;5052783;28;20277;-53
2022/11/11 02:48:51;;;;;;;;;;;;;;;;;;5052473;28;20265;-57
2022/11/11 02:51:17;;;;;;;;;;;;;;;;;;5052383;28;19905;-56
2022/11/11 02:53:43;;;;;;;;;;;;;;;;;;5052831;28;19925;-57
2022/11/11 02:56:09;;;;;;;;;;;;;;;;;;5052539;28;19912;-55
2022/11/11 02:58:35;;;;;;;;;;;;;;;;;;5052327;28;19993;-56
2022/11/11 03:01:01;;;;;;;;;;;;;;;;;;5052508;28;20003;-53
2022/11/11 03:03:27;;;;;;;;;;;;;;;;;;5052493;28;19999;-57
2022/11/11 03:05:53;;;;;;;;;;;;;;;;;;5052329;28;20003;-54
2022/11/11 03:08:19;;;;;;;;;;;;;;;;;;5052308;28;19913;-57
2022/11/11 03:10:44;;;;;;;;;;;;;;;;;;5052627;28;19915;-56
2022/11/11 03:13:10;;;;;;;;;;;;;;;;;;5052139;28;19962;-56
2022/11/11 03:15:36;;;;;;;;;;;;;;;;;;5052749;28;19908;-56
2022/11/11 03:18:02;;;;;;;;;;;;;;;;;;5052381;28;19909;-56
2022/11/11 03:23:13;;;;;;;;;;;;;;;;;;5051951;28;19967;-57
2022/11/11 03:25:39;;;;;;;;;;;;;;;;;;5052297;28;20328;-55
2022/11/11 03:28:05;;;;;;;;;;;;;;;;;;5051942;28;20019;-52
2022/11/11 03:30:31;;;;;;;;;;;;;;;;;;5052246;28;19905;-52
2022/11/11 03:32:57;;;;;;;;;;;;;;;;;;5051745;28;19947;-56
2022/11/11 03:35:23;;;;;;;;;;;;;;;;;;5052017;28;19950;-56
2022/11/11 03:40:33;;;;;;;;;;;;;;;;;;5048671;28;19967;-53
2022/11/11 03:42:59;;;;;;;;;;;;;;;;;;5051033;28;19909;-56
2022/11/11 03:45:25;;;;;;;;;;;;;;;;;;5051511;28;19905;-54
2022/11/11 03:47:53;;;;;;;;;;;;;;;;;;5051534;28;19909;-55
2022/11/11 03:50:19;;;;;;;;;;;;;;;;;;5051363;28;19909;-56
2022/11/11 03:52:45;;;;;;;;;;;;;;;;;;5051637;28;19909;-53
2022/11/11 03:55:11;;;;;;;;;;;;;;;;;;5051530;28;20007;-53
2022/11/11 03:57:37;;;;;;;;;;;;;;;;;;5051817;28;19999;-56
2022/11/11 04:00:03;;;;;;;;;;;;;;;;;;5051597;28;20005;-55
2022/11/11 04:10:43;;;;;;;;;;;;;;;;;;5043857;28;20400;-55
2022/11/11 04:16:05;;;;;;;;;;;;;;;;;;5038588;28;19916;-58
2022/11/11 04:24:00;;;;;;;;;;;;;;;;;;5061840;28;20285;-57
2022/11/11 04:26:26;;;;;;;;;;;;;;;;;;5058297;28;19909;-56
2022/11/11 04:32:34;;;;;;;;;;;;;;;;;;5058516;28;20276;-55
2022/11/11 04:34:23;;;;;;;;;;;;;;;;;;5057629;28;19909;-57
2022/11/11 04:36:49;;;;;;;;;;;;;;;;;;5058389;28;19959;-53
2022/11/11 04:41:59;;;;;;;;;;;;;;;;;;5056337;28;19962;-51
2022/11/11 04:47:09;;;;;;;;;;;;;;;;;;5058303;28;19959;-56
2022/11/11 04:49:35;;;;;;;;;;;;;;;;;;5057848;28;20326;-55
2022/11/11 04:57:31;;;;;;;;;;;;;;;;;;5058738;28;20388;-57
2022/11/11 04:59:56;;;;;;;;;;;;;;;;;;5056710;28;19904;-57
2022/11/11 05:05:07;;;;;;;;;;;;;;;;;;5038070;28;19954;-57
2022/11/11 05:10:17;;;;;;;;;;;;;;;;;;5038049;28;20012;-53
2022/11/11 05:12:43;;;;;;;;;;;;;;;;;;5037465;28;20376;-57
2022/11/11 05:25:24;;;;;;;;;;;;;;;;;;5034647;28;19955;-54
2022/11/11 05:26:09;;;;;;;;;;;;;;;;;;5034726;28;20004;-57
2022/11/11 05:28:35;;;;;;;;;;;;;;;;;;5034942;28;19955;-57
2022/11/11 05:31:00;;;;;;;;;;;;;;;;;;5034798;28;20392;-58
2022/11/11 05:33:26;;;;;;;;;;;;;;;;;;5054127;28;19992;-56
2022/11/11 05:35:52;;;;;;;;;;;;;;;;;;5054593;28;19909;-58
2022/11/11 05:38:21;;;;;;;;;;;;;;;;;;5054460;28;19959;-56
2022/11/11 05:40:47;;;;;;;;;;;;;;;;;;5036658;28;19912;-53
2022/11/11 05:43:13;;;;;;;;;;;;;;;;;;5036504;28;19909;-57
2022/11/11 05:45:39;;;;;;;;;;;;;;;;;;5054367;28;19908;-56
2022/11/11 05:48:05;;;;;;;;;;;;;;;;;;5054379;28;20345;-57
2022/11/11 05:50:30;;;;;;;;;;;;;;;;;;5054342;28;19911;-53
2022/11/11 05:52:56;;;;;;;;;;;;;;;;;;5054490;28;19901;-52
2022/11/11 05:55:22;;;;;;;;;;;;;;;;;;5054007;28;20154;-57
2022/11/11 05:57:48;;;;;;;;;;;;;;;;;;5036308;28;20435;-57
2022/11/11 06:00:14;;;;;;;;;;;;;;;;;;5053950;28;20019;-56
2022/11/11 06:02:40;;;;;;;;;;;;;;;;;;5054089;28;19911;-56
2022/11/11 06:05:07;;;;;;;;;;;;;;;;;;5053856;28;19915;-53
2022/11/11 06:07:33;;;;;;;;;;;;;;;;;;5053947;28;19959;-57
2022/11/11 06:10:29;;;;;;;;;;;;;;;;;;5053850;28;19912;-57
2022/11/11 06:15:29;;;;;;;;;;;;;;;;;;5053872;28;19912;-57
2022/11/11 06:17:55;;;;;;;;;;;;;;;;;;5053650;28;19905;-57
2022/11/11 06:20:21;;;;;;;;;;;;;;;;;;5053647;28;19905;-57
2022/11/11 06:22:56;;;;;;;;;;;;;;;;;;5053593;28;19904;-56
2022/11/11 06:28:07;;;;;;;;;;;;;;;;;;5050739;28;19955;-57
2022/11/11 06:30:33;;;;;;;;;;;;;;;;;;5053307;28;19905;-59
2022/11/11 06:32:59;;;;;;;;;;;;;;;;;;5053471;28;19909;-55
2022/11/11 06:35:24;;;;;;;;;;;;;;;;;;5053457;28;20353;-58
2022/11/11 06:37:50;;;;;;;;;;;;;;;;;;5053742;28;19905;-56
2022/11/11 06:40:16;;;;;;;;;;;;;;;;;;5053231;28;19905;-56
2022/11/11 06:42:42;;;;;;;;;;;;;;;;;;5053252;28;19984;-60
2022/11/11 06:45:08;;;;;;;;;;;;;;;;;;5053051;28;20312;-57
2022/11/11 06:47:34;;;;;;;;;;;;;;;;;;5053113;28;19905;-57
2022/11/11 06:50:00;;;;;;;;;;;;;;;;;;5052988;28;20003;-56
2022/11/11 06:52:26;;;;;;;;;;;;;;;;;;5053125;28;19904;-57
2022/11/11 06:54:52;;;;;;;;;;;;;;;;;;5053128;28;20365;-57
2022/11/11 06:57:18;;;;;;;;;;;;;;;;;;5052835;28;19995;-57
2022/11/11 06:59:43;;;;;;;;;;;;;;;;;;5052894;28;19944;-58
2022/11/11 07:02:09;;;;;;;;;;;;;;;;;;5052867;28;19905;-60
2022/11/11 07:04:35;;;;;;;;;;;;;;;;;;5052935;28;19916;-61
2022/11/11 07:07:01;;;;;;;;;;;;;;;;;;5052807;28;20408;-61
2022/11/11 07:09:28;;;;;;;;;;;;;;;;;;5052710;28;19951;-61
2022/11/11 07:11:54;;;;;;;;;;;;;;;;;;5052754;28;19911;-61
2022/11/11 07:14:19;;;;;;;;;;;;;;;;;;5052677;28;19904;-60
2022/11/11 07:16:45;;;;;;;;;;;;;;;;;;5034678;28;20407;-61
2022/11/11 07:19:11;;;;;;;;;;;;;;;;;;5034576;28;19905;-60
2022/11/11 07:21:37;;;;;;;;;;;;;;;;;;5052652;28;19912;-57
2022/11/11 07:24:03;;;;;;;;;;;;;;;;;;5052500;28;19954;-57
2022/11/11 07:26:29;;;;;;;;;;;;;;;;;;5052492;28;19913;-56
2022/11/11 07:28:57;;;;;;;;;;;;;;;;;;5052371;28;20397;-56
2022/11/11 07:31:23;;;;;;;;;;;;;;;;;;5052385;28;19909;-57
2022/11/11 07:33:48;;;;;;;;;;;;;;;;;;5052482;28;19905;-57
2022/11/11 07:36:14;;;;;;;;;;;;;;;;;;5051779;28;19905;-57
2022/11/11 07:38:41;;;;;;;;;;;;;;;;;;5051463;28;19908;-58
2022/11/11 07:41:07;;;;;;;;;;;;;;;;;;5052296;28;19904;-58
2022/11/11 07:43:33;;;;;;;;;;;;;;;;;;5034322;28;19992;-56
2022/11/11 07:45:59;;;;;;;;;;;;;;;;;;5052151;28;20380;-58
2022/11/11 07:48:24;;;;;;;;;;;;;;;;;;5052169;28;19905;-56
2022/11/11 07:50:50;;;;;;;;;;;;;;;;;;5052229;28;19936;-57
2022/11/11 07:53:16;;;;;;;;;;;;;;;;;;5052144;28;19908;-59
2022/11/11 07:55:42;;;;;;;;;;;;;;;;;;5034053;28;20292;-58
2022/11/11 07:58:08;;;;;;;;;;;;;;;;;;5051657;28;19911;-57
2022/11/11 08:00:34;;;;;;;;;;;;;;;;;;5052095;28;19919;-57
2022/11/11 08:03:00;;;;;;;;;;;;;;;;;;5052059;28;19911;-56
2022/11/11 08:05:26;;;;;;;;;;;;;;;;;;5050419;28;20003;-58
2022/11/11 08:07:52;;;;;;;;;;;;;;;;;;5050351;28;20417;-58
2022/11/11 08:10:18;;;;;;;;;;;;;;;;;;5051229;28;19912;-56
2022/11/11 08:15:29;;;;;;;;;;;;;;;;;;5051944;28;19934;-56
2022/11/11 08:17:55;;;;;;;;;;;;;;;;;;5051991;28;20333;-58
2022/11/11 08:20:21;;;;;;;;;;;;;;;;;;5051830;28;19904;-55
2022/11/11 08:22:48;;;;;;;;;;;;;;;;;;5051898;28;19905;-57
2022/11/11 08:25:14;;;;;;;;;;;;;;;;;;5033831;28;19948;-58
2022/11/11 08:27:40;;;;;;;;;;;;;;;;;;5051883;28;19908;-55
2022/11/11 08:30:06;;;;;;;;;;;;;;;;;;5051641;28;19909;-58
2022/11/11 08:32:32;;;;;;;;;;;;;;;;;;5051768;28;19909;-58
2022/11/11 08:34:58;;;;;;;;;;;;;;;;;;5051662;28;19904;-59
2022/11/11 08:37:24;;;;;;;;;;;;;;;;;;5051706;28;19911;-58
2022/11/11 08:39:51;;;;;;;;;;;;;;;;;;5051604;28;19912;-58
2022/11/11 08:42:17;;;;;;;;;;;;;;;;;;5051700;28;19955;-58
2022/11/11 08:44:43;;;;;;;;;;;;;;;;;;5051603;28;19936;-58
2022/11/11 08:47:09;;;;;;;;;;;;;;;;;;5051605;28;19916;-58
2022/11/11 08:49:34;;;;;;;;;;;;;;;;;;5055020;28;19904;-58
2022/11/11 08:52:00;;;;;;;;;;;;;;;;;;5055388;28;20010;-57
2022/11/11 08:54:26;;;;;;;;;;;;;;;;;;5055448;28;20034;-54
2022/11/11 08:56:52;;;;;;;;;;;;;;;;;;5055164;28;20352;-53
2022/11/11 08:59:18;;;;;;;;;;;;;;;;;;5055089;28;19940;-58
2022/11/11 09:01:44;;;;;;;;;;;;;;;;;;5055256;28;20323;-59
2022/11/11 09:04:10;;;;;;;;;;;;;;;;;;5055080;28;19962;-57
2022/11/11 09:06:36;;;;;;;;;;;;;;;;;;5054833;28;20292;-58
2022/11/11 09:09:02;;;;;;;;;;;;;;;;;;5054869;28;20003;-58
2022/11/11 09:11:35;;;;;;;;;;;;;;;;;;5055096;28;20447;-58
2022/11/11 09:14:00;;;;;;;;;;;;;;;;;;5054415;28;19915;-59
2022/11/11 09:16:26;;;;;;;;;;;;;;;;;;5053468;28;20480;-58
2022/11/11 09:18:52;;;;;;;;;;;;;;;;;;5054618;28;19905;-58
2022/11/11 09:21:18;;;;;;;;;;;;;;;;;;5054837;28;19912;-58
2022/11/11 09:23:44;;;;;;;;;;;;;;;;;;5054670;28;20259;-58
2022/11/11 09:26:10;;;;;;;;;;;;;;;;;;5036751;28;19905;-59
2022/11/11 09:28:36;;;;;;;;;;;;;;;;;;5054491;28;19905;-60
2022/11/11 09:31:02;;;;;;;;;;;;;;;;;;5036760;28;19901;-60
2022/11/11 09:33:28;;;;;;;;;;;;;;;;;;5054511;28;20007;-60
2022/11/11 09:35:54;;;;;;;;;;;;;;;;;;5054428;28;19900;-60
2022/11/11 09:38:19;;;;;;;;;;;;;;;;;;5054360;28;19940;-60
2022/11/11 09:40:45;;;;;;;;;;;;;;;;;;5054386;28;20343;-59
2022/11/11 09:43:11;;;;;;;;;;;;;;;;;;5054510;28;19992;-60
2022/11/11 09:45:37;;;;;;;;;;;;;;;;;;5054298;28;20372;-61
2022/11/11 09:48:03;;;;;;;;;;;;;;;;;;5054240;28;19939;-60
2022/11/11 09:50:29;;;;;;;;;;;;;;;;;;5054037;28;19916;-60
2022/11/11 09:52:55;;;;;;;;;;;;;;;;;;5054140;28;19905;-60
2022/11/11 09:55:21;;;;;;;;;;;;;;;;;;5053941;28;20373;-61
2022/11/11 09:57:47;;;;;;;;;;;;;;;;;;5054215;28;19904;-60
2022/11/11 10:00:13;;;;;;;;;;;;;;;;;;5053098;28;19946;-61
2022/11/11 10:02:39;;;;;;;;;;;;;;;;;;5053986;28;19909;-60
2022/11/11 10:05:04;;;;;;;;;;;;;;;;;;5053834;28;19916;-60
2022/11/11 10:07:30;;;;;;;;;;;;;;;;;;5054019;28;19905;-60
2022/11/11 10:09:56;;;;;;;;;;;;;;;;;;5053739;28;19905;-60
2022/11/11 10:12:22;;;;;;;;;;;;;;;;;;5054011;28;19905;-57
2022/11/11 10:14:50;;;;;;;;;;;;;;;;;;5053910;28;19905;-59
2022/11/11 10:17:15;;;;;;;;;;;;;;;;;;5053656;28;20495;-59
2022/11/11 10:19:41;;;;;;;;;;;;;;;;;;5053650;28;19908;-60
2022/11/11 10:22:07;;;;;;;;;;;;;;;;;;5053652;28;19905;-61
2022/11/11 10:24:33;;;;;;;;;;;;;;;;;;5053542;28;19909;-60
2022/11/11 10:26:59;;;;;;;;;;;;;;;;;;5053684;28;19909;-60
2022/11/11 10:29:25;;;;;;;;;;;;;;;;;;5053477;28;20353;-60
2022/11/11 10:31:51;;;;;;;;;;;;;;;;;;5053449;28;20291;-60
2022/11/11 10:34:17;;;;;;;;;;;;;;;;;;5035550;28;20428;-61
2022/11/11 10:36:43;;;;;;;;;;;;;;;;;;5053335;28;20023;-61
2022/11/11 10:39:09;;;;;;;;;;;;;;;;;;5053144;28;19995;-60
2022/11/11 10:41:35;;;;;;;;;;;;;;;;;;5053273;28;19911;-61
2022/11/11 10:44:00;;;;;;;;;;;;;;;;;;5053149;28;19954;-59
2022/11/11 10:46:26;;;;;;;;;;;;;;;;;;5053196;28;19905;-60
2022/11/11 10:48:52;;;;;;;;;;;;;;;;;;5052899;28;19988;-59
2022/11/11 10:51:18;;;;;;;;;;;;;;;;;;5053072;28;19904;-59
2022/11/11 10:53:45;;;;;;;;;;;;;;;;;;5053075;28;20357;-60
2022/11/11 10:56:10;;;;;;;;;;;;;;;;;;5075202;22;19929;-50
2022/11/11 10:58:37;;;;;;;;;;;;;;;;;;5052369;28;19904;-50
2022/11/11 11:01:02;;;;;;;;;;;;;;;;;;5052772;28;20292;-53
2022/11/11 11:03:29;;;;;;;;;;;;;;;;;;5052801;28;19912;-50
2022/11/11 11:05:55;;;;;;;;;;;;;;;;;;5051548;28;19912;-53
2022/11/11 11:08:21;;;;;;;;;;;;;;;;;;5052714;28;19912;-50
2022/11/11 11:10:47;;;;;;;;;;;;;;;;;;5052605;28;19928;-50
2022/11/11 11:13:13;;;;;;;;;;;;;;;;;;5052696;28;19905;-51
2022/11/11 11:15:39;;;;;;;;;;;;;;;;;;5052533;28;19904;-50
2022/11/11 11:18:05;;;;;;;;;;;;;;;;;;5041252;28;19932;-51
2022/11/11 11:20:31;;;;;;;;;;;;;;;;;;5051267;28;19915;-51
2022/11/11 11:23:00;;;;;;;;;;;;;;;;;;5052550;28;19917;-51
2022/11/11 11:25:28;;;;;;;;;;;;;;;;;;5040552;28;19920;-50
2022/11/11 11:27:54;;;;;;;;;;;;;;;;;;5041320;28;19909;-50
2022/11/11 11:30:20;;;;;;;;;;;;;;;;;;5038168;28;19955;-50
2022/11/11 11:32:48;;;;;;;;;;;;;;;;;;5038346;28;19963;-51
2022/11/11 11:35:14;;;;;;;;;;;;;;;;;;5040465;28;20296;-51
2022/11/11 11:37:40;;;;;;;;;;;;;;;;;;5045724;28;19999;-51
2022/11/11 11:40:06;;;;;;;;;;;;;;;;;;5044125;28;19909;-50
2022/11/11 11:42:32;;;;;;;;;;;;;;;;;;5035666;28;20266;-50
2022/11/11 11:44:58;;;;;;;;;;;;;;;;;;5049927;28;19912;-51
2022/11/11 11:47:24;;;;;;;;;;;;;;;;;;5052257;28;19911;-50
2022/11/11 11:49:50;;;;;;;;;;;;;;;;;;5038052;28;19955;-50
2022/11/11 11:52:16;;;;;;;;;;;;;;;;;;5035392;28;19963;-52
2022/11/11 11:54:42;;;;;;;;;;;;;;;;;;5045536;28;20418;-50
2022/11/11 11:57:08;;;;;;;;;;;;;;;;;;5039608;28;19988;-52
2022/11/11 11:59:34;;;;;;;;;;;;;;;;;;5032273;28;20033;-52
2022/11/11 12:02:00;;;;;;;;;;;;;;;;;;5032321;28;19909;-50
2022/11/11 12:04:26;;;;;;;;;;;;;;;;;;5033212;28;19913;-51
2022/11/11 12:06:52;;;;;;;;;;;;;;;;;;5030835;28;19928;-54
2022/11/11 12:09:18;;;;;;;;;;;;;;;;;;5045644;28;19939;-53
2022/11/11 12:11:44;;;;;;;;;;;;;;;;;;5048840;28;19963;-50
2022/11/11 12:14:12;;;;;;;;;;;10.40;95.00;;;;;;5039720;28;20042;-51
2022/11/11 12:16:56;;;;;;;;;;;19.20;86.90;;;;;;5040983;28;19959;-50
2022/11/11 12:19:28;;;;;;;;;;;20.00;79.70;;;;;;5048381;28;20000;-52
2022/11/11 12:22:12;;;;;;;;;;;20.60;77.70;;;;;;5045777;28;19948;-52
2022/11/11 12:24:47;;;;;;;;;;;20.80;74.00;;;;;;5044050;28;20383;-51
2022/11/11 12:27:24;;;;;;;;;;;20.60;76.30;;;;;;5050646;28;19975;-51
2022/11/11 12:30:00;;;;;;;;;;;20.20;76.30;;;;;;5036995;28;19999;-53
2022/11/11 12:32:26;;;;;;;;;;;19.70;78.80;;;;;;5039083;28;20396;-51
2022/11/11 12:35:15;;;;;;;;;;;19.30;80.10;;;;;;5042820;28;19909;-51
2022/11/11 12:37:56;;;;;;;;;;;18.90;81.80;;;;;;5038485;28;19913;-51
2022/11/11 12:40:40;;;;;;;;;;;18.60;83.40;;;;;;5055601;28;20386;-49
2022/11/11 12:43:19;;;;;;;;;;;18.50;83.80;;;;;;5053930;28;19956;-50
2022/11/11 12:45:50;;;;;;;;;;;18.20;84.40;;;;;;5051227;28;19936;-50
2022/11/11 12:48:16;;;;;;;;;;;;;;;;;;5043166;28;19920;-53
2022/11/11 12:50:42;;;;;;;;;;;;;;;;;;5040701;28;19909;-50
2022/11/11 12:53:08;;;;;;;;;;;;;;;;;;5044871;28;19909;-51
2022/11/11 12:55:34;;;;;;;;;;;;;;;;;;5041345;28;19955;-50
2022/11/11 12:58:00;;;;;;;;;;;;;;;;;;5044845;28;19982;-51
2022/11/11 13:00:26;;;;;;;;;;;;;;;;;;5033973;28;20516;-50
2022/11/11 13:02:51;;;;;;;;;;;18.10;85.00;;;;;;5047874;28;19909;-52
2022/11/11 13:05:23;;;;;;;;;;;19.20;80.90;;;;;;5053627;28;19920;-51
2022/11/11 13:07:54;;;;;;;;;;;19.10;81.30;;;;;;5035377;28;19909;-52
2022/11/11 13:10:22;;;;;;;;;;;18.90;81.40;;;;;;5035145;28;19905;-50
2022/11/11 13:12:48;;;;;;;;;;;;;;;;;;5046267;28;19969;-50
2022/11/11 13:15:14;;;;;;;;;;;;;;;;;;5052963;28;20137;-50
2022/11/11 13:17:40;;;;;;;;;;;;;;;;;;5035009;28;20453;-53
2022/11/11 13:20:06;;;;;;;;;;;;;;;;;;5041695;28;19954;-51
2022/11/11 13:22:32;;;;;;;;;;;18.60;82.10;;;;;;5038152;28;20043;-50
2022/11/11 13:25:01;;;;;;;;;;;20.10;79.00;;;;;;5037800;28;19920;-51
2022/11/11 13:27:45;;;;;;;;;;;20.50;76.30;;;;;;5054541;28;19904;-51
2022/11/11 13:30:26;;;;;;;;;;;20.50;74.50;;;;;;5054688;28;20381;-52
2022/11/11 13:32:54;;;;;;;;;;;20.30;76.40;;;;;;5046404;28;20039;-50
2022/11/11 13:35:25;;;;;;;;;;;20.20;76.10;;;;;;5041494;28;19926;-51
2022/11/11 13:37:51;;;;;;;;;;;20.00;76.40;;;;;;5047145;28;20388;-52
2022/11/11 13:40:31;;;;;;;;;;;19.70;77.50;;;;;;5047227;28;19916;-51
2022/11/11 13:42:56;;;;;;;;;;;19.50;78.90;;;;;;5034796;28;19909;-51
2022/11/11 13:45:28;;;;;;;;;;;19.50;79.20;;;;;;5035341;28;19935;-51
2022/11/11 13:47:53;;;;;;;;;;;19.40;79.00;;;;;;5042743;28;20431;-50
2022/11/11 13:50:35;;;;;;;;;;;19.30;78.80;;;;;;5034247;28;19952;-51
2022/11/11 13:53:00;;;;;;;;;;;19.10;79.60;;;;;;5033871;28;19952;-49
2022/11/11 13:55:31;;;;;;;;;;;19.00;80.30;;;;;;5049601;28;20372;-51
2022/11/11 13:57:57;;;;;;;;;;;19.00;80.70;;;;;;5053419;28;19952;-52
2022/11/11 14:00:25;;;;;;;;;;;18.90;81.00;;;;;;5053929;28;19904;-51
2022/11/11 14:03:09;;;;;;;;;;;18.90;81.20;;;;;;5054090;28;19909;-51
2022/11/11 14:05:34;;;;;;;;;;;18.90;81.20;;;;;;5036148;28;19935;-52
2022/11/11 14:08:00;;;;;;;;;;;18.80;80.20;;;;;;5034071;28;20405;-51
2022/11/11 14:10:34;;;;;;;;;;;18.70;81.60;;;;;;5034034;28;19909;-51
2022/11/11 14:13:18;;;;;;;;;;;18.70;81.80;;;;;;5033869;28;20366;-51
2022/11/11 14:15:45;;;;;;;;;;;18.60;80.90;;;;;;5052091;28;19909;-54
2022/11/11 14:18:11;;;;;;;;;;;18.40;81.20;;;;;;5053519;28;19946;-52
2022/11/11 14:20:38;;;;;;;;;;;18.30;81.90;;;;;;5038802;28;20423;-52
2022/11/11 14:23:19;;;;;;;;;;;18.10;82.20;;;;;;5033696;28;19939;-52
2022/11/11 14:25:45;;;;;;;;;;;18.00;82.50;;;;;;5049662;28;19975;-51
2022/11/11 14:28:21;;;;;;;;;;;17.80;83.10;;;;;;5033477;28;19916;-51
2022/11/11 14:30:47;;;;;;;;;;;;;;;;;;5033605;28;19913;-52
2022/11/11 14:33:13;;;;;;;;;;;;;;;;;;5033433;28;19905;-52
2022/11/11 14:35:39;;;;;;;;;;;;;;;;;;5050643;28;19915;-53
2022/11/11 14:38:05;;;;;;;;;;;;;;;;;;5053402;28;19905;-50
2022/11/11 14:40:31;;;;;;;;;;;;;;;;;;5049060;28;19916;-51
2022/11/11 14:42:57;;;;;;;;;;;;;;;;;;5044574;28;20028;-52
2022/11/11 14:45:24;;;;;;;;;;;;;;;;;;5032922;28;19913;-51
2022/11/11 14:47:50;;;;;;;;;;;;;;;;;;5045672;28;19909;-51
2022/11/11 14:50:16;;;;;;;;;;;;;;;;;;5043038;28;20344;-51
2022/11/11 14:52:42;;;;;;;;;;;;;;;;;;5038834;28;19909;-51
2022/11/11 14:55:08;;;;;;;;;;;;;;;;;;5042477;28;19908;-51
2022/11/11 14:57:35;;;;;;;;;;;;;;;;;;5036917;28;19916;-52
2022/11/11 15:00:01;;;;;;;;;;;;;;;;;;5042544;28;19915;-52
2022/11/11 15:02:27;;;;;;;;;;;;;;;;;;5043252;28;19992;-53
2022/11/11 15:04:53;;;;;;;;;;;;;;;;;;5052963;28;19963;-53
2022/11/11 15:07:18;;;;;;;;;;;;;;;;;;5034630;28;19905;-52
2022/11/11 15:09:44;;;;;;;;;;;;;;;;;;5035301;28;19909;-53
2022/11/11 15:12:10;;;;;;;;;;;;;;;;;;5048338;28;20434;-51
2022/11/11 15:14:36;;;;;;;;;;;;;;;;;;5050537;28;19916;-52
2022/11/11 15:17:02;;;;;;;;;;;;;;;;;;5052386;28;19912;-52
2022/11/11 15:19:28;;;;;;;;;;;;;;;;;;5051216;28;19905;-51
2022/11/11 15:21:54;;;;;;;;;;;;;;;;;;5052753;28;20395;-51
2022/11/11 15:24:20;;;;;;;;;;;;;;;;;;5052556;28;20452;-52
2022/11/11 15:26:46;;;;;;;;;;;;;;;;;;5052476;28;19908;-52
2022/11/11 15:29:12;;;;;;;;;;;;;;;;;;5052396;28;20351;-52
2022/11/11 15:31:39;;;;;;;;;;;;;;;;;;5052597;28;20361;-51
2022/11/11 15:34:05;;;;;;;;;;;;;;;;;;5051119;28;19940;-51
2022/11/11 15:36:31;;;;;;;;;;;;;;;;;;5052326;28;19915;-51
2022/11/11 15:38:57;;;;;;;;;;;;;;;;;;5050934;28;19916;-51
2022/11/11 15:41:23;;;;;;;;;;;;;;;;;;5051025;28;19912;-52
2022/11/11 15:43:49;;;;;;;;;;;;;;;;;;5052450;28;19994;-52
2022/11/11 15:46:15;;;;;;;;;;;;;;;;;;5042832;28;19909;-52
2022/11/11 15:48:41;;;;;;;;;;;;;;;;;;5032158;28;19999;-51
2022/11/11 15:51:07;;;;;;;;;;;;;;;;;;5031113;28;20008;-51
2022/11/11 15:53:33;;;;;;;;;;;;;;;;;;5031002;28;19995;-52
2022/11/11 15:56:00;;;;;;;;;;;;;;;;;;5032113;28;19952;-51
2022/11/11 15:58:27;;;;;;;;;;;;;;;;;;5031294;28;19988;-51
2022/11/11 16:00:53;;;;;;;;;;;;;;;;;;5034609;28;19909;-54
2022/11/11 16:03:18;;;;;;;;;;;;;;;;;;5030763;28;19931;-51
2022/11/11 16:05:44;;;;;;;;;;;;;;;;;;5030812;28;19913;-52
2022/11/11 16:08:10;;;;;;;;;;;;;;;;;;5031925;28;19951;-51
2022/11/11 16:10:36;;;;;;;;;;;;;;;;;;5032089;28;19905;-51
2022/11/11 16:13:02;;;;;;;;;;;;;;;;;;5031978;28;19983;-51
2022/11/11 16:15:28;;;;;;;;;;;;;;;;;;5031881;28;19959;-52
2022/11/11 16:17:54;;;;;;;;;;;;;;;;;;5034770;28;19954;-51
2022/11/11 16:20:20;;;;;;;;;;;;;;;;;;5031193;28;19905;-52
2022/11/11 16:22:46;;;;;;;;;;;;;;;;;;5029357;28;20427;-51
2022/11/11 16:25:12;;;;;;;;;;;;;;;;;;5031876;28;20448;-51
2022/11/11 16:27:38;;;;;;;;;;;;;;;;;;5031767;28;19969;-51
2022/11/11 16:30:04;;;;;;;;;;;;;;;;;;5031679;28;19905;-51
2022/11/11 16:32:30;;;;;;;;;;;;;;;;;;5031724;28;19912;-51
2022/11/11 16:34:56;;;;;;;;;;;;;;;;;;5031831;28;19905;-51
2022/11/11 16:37:22;;;;;;;;;;;;;;;;;;5031647;28;19909;-51
2022/11/11 16:39:48;;;;;;;;;;;;;;;;;;5031714;28;19905;-51
2022/11/11 16:42:14;;;;;;;;;;;;;;;;;;5031790;28;19905;-51
2022/11/11 16:44:40;;;;;;;;;;;;;;;;;;5031652;28;19915;-51
2022/11/11 16:47:06;;;;;;;;;;;;;;;;;;5031597;28;20385;-51
2022/11/11 16:49:32;;;;;;;;;;;;;;;;;;5031564;28;19909;-51
2022/11/11 16:51:58;;;;;;;;;;;;;;;;;;5031621;28;20668;-51
2022/11/11 16:54:24;;;;;;;;;;;;;;;;;;5031676;28;19940;-51
2022/11/11 16:56:50;;;;;;;;;;;;;;;;;;5032044;28;19916;-51
2022/11/11 16:59:16;;;;;;;;;;;;;;;;;;5031527;28;19995;-51
2022/11/11 17:01:42;;;;;;;;;;;;;;;;;;5031466;28;19909;-51
2022/11/11 17:04:08;;;;;;;;;;;;;;;;;;5031449;28;19963;-51
2022/11/11 17:06:34;;;;;;;;;;;;;;;;;;5031460;28;19951;-50
2022/11/11 17:09:00;;;;;;;;;;;;;;;;;;5032383;28;19913;-51
2022/11/11 17:11:26;;;;;;;;;;;;;;;;;;5035153;28;19905;-51
2022/11/11 17:13:51;;;;;;;;;;;;;;;;;;5034980;28;19955;-52
2022/11/11 17:16:17;;;;;;;;;;;;;;;;;;5034991;28;20010;-52
2022/11/11 17:18:43;;;;;;;;;;;;;;;;;;5034692;28;19912;-51
2022/11/11 17:21:09;;;;;;;;;;;;;;;;;;5034903;28;19905;-51
2022/11/11 17:23:35;;;;;;;;;;;;;;;;;;5034802;28;19912;-51
2022/11/11 17:26:02;;;;;;;;;;;;;;;;;;5034794;28;19990;-52
2022/11/11 17:28:28;;;;;;;;;;;;;;;;;;5034715;28;19905;-52
2022/11/11 17:30:54;;;;;;;;;;;;;;;;;;5034670;28;19909;-51
2022/11/11 17:33:20;;;;;;;;;;;;;;;;;;5034636;28;19965;-52
2022/11/11 17:35:45;;;;;;;;;;;;;;;;;;5034726;28;19931;-51
2022/11/11 17:38:11;;;;;;;;;;;;;;;;;;5034496;28;20300;-51
2022/11/11 17:40:39;;;;;;;;;;;;;;;;;;5034422;28;20366;-52
2022/11/11 17:43:05;;;;;;;;;;;;;;;;;;5034425;28;19905;-51
2022/11/11 17:45:31;;;;;;;;;;;;;;;;;;5034308;28;19916;-51
2022/11/11 17:47:57;;;;;;;;;;;;;;;;;;5034399;28;19987;-52